Yates, Illinois
Current Conditions -  °F | °C
As of 7:35 PM on Tuesday 21 Oct 2014 (Local Time) from KPNT Reporting Station
Clear Clear  
Wind Chill: 40°   Ceiling: Unl
Heat Index: 45°   Visibility: 10mi
Dew Point: 39°   Wind: 9mph
Humidity: 80%   Direction: 40°NE
Pressure: 30.23"   Gusts: NA
Location:  40.7409°N, 88.7189°W
Report Text: KPNT 220035Z AUTO 04008KT 10SM CLR 07/04 A3023 RMK AO2 T00720040
Loading
Personal Weather Stations






























Interactive Weather Map
Tropical Storm Tracking
New forecast layout! Learn more

10-Day Weather Forecast

Advertisements
Track Severe Weather on mobile